METAR Data
IDs: Format: Raw Decoded Include TAF

Data at: 1638 UTC 03 Dec 2021

METAR for:KPSO (Pagosa Springs/Steve, CO, US)
Text:KPSO 031615Z AUTO 00000KT 10SM CLR 04/M04 A3027 RMK AO2 T00381044
Temperature: 3.8°C ( 39°F)
Dewpoint: -4.4°C ( 24°F) [RH = 55%]
Pressure (altimeter):30.27 inches Hg (1025.1 mb)
Winds:calm
Visibility:10 or more sm (16+ km)
Ceiling:at least 12,000 feet AGL
Clouds:sky clear below 12,000 feet AGL
QC Flag:automated observation with no human augmentation